createdAt,value
2022-10-02T00:00:14.345Z,12.03
2022-10-02T00:01:17.472Z,12.02
2022-10-02T00:02:14.649Z,12.02
2022-10-02T00:03:14.340Z,12.03
2022-10-02T00:04:14.458Z,12.03
2022-10-02T00:05:14.395Z,12.04
2022-10-02T00:06:14.461Z,12.03
2022-10-02T00:07:14.637Z,12.05
2022-10-02T00:08:14.715Z,12.1
2022-10-02T00:09:14.445Z,12.12
2022-10-02T00:10:14.266Z,12.14
2022-10-02T00:11:14.247Z,12.14
2022-10-02T00:12:20.333Z,12.12
2022-10-02T00:13:14.343Z,12.1
2022-10-02T00:14:14.335Z,12.08
2022-10-02T00:15:14.292Z,12.06
2022-10-02T00:16:14.297Z,12.04
2022-10-02T00:17:14.710Z,12.03
2022-10-02T00:18:14.394Z,12.04
2022-10-02T00:19:14.287Z,12.08
2022-10-02T00:20:14.279Z,12.12
2022-10-02T00:21:14.396Z,12.17
2022-10-02T00:22:14.635Z,12.21
2022-10-02T00:23:20.332Z,12.25
2022-10-02T00:24:14.435Z,12.26
2022-10-02T00:25:14.382Z,12.27
2022-10-02T00:26:14.373Z,12.3
2022-10-02T00:27:14.711Z,12.33
2022-10-02T00:28:14.574Z,12.37
2022-10-02T00:29:14.377Z,12.36
2022-10-02T00:30:14.384Z,12.38
2022-10-02T00:31:14.510Z,12.42
2022-10-02T00:32:14.710Z,12.45
2022-10-02T00:33:14.379Z,12.47
2022-10-02T00:34:17.278Z,12.51
2022-10-02T00:35:14.341Z,12.53
2022-10-02T00:36:14.255Z,12.55
2022-10-02T00:37:14.715Z,12.56
2022-10-02T00:38:14.670Z,12.59
2022-10-02T00:39:14.418Z,12.62
2022-10-02T00:40:14.318Z,12.6
2022-10-02T00:41:14.257Z,12.67
2022-10-02T00:42:14.699Z,12.67
2022-10-02T00:43:14.380Z,12.69
2022-10-02T00:44:14.373Z,12.69
2022-10-02T00:45:17.412Z,12.72
2022-10-02T00:46:14.407Z,12.72
2022-10-02T00:47:14.708Z,12.73
2022-10-02T00:48:14.409Z,12.73
2022-10-02T00:49:14.301Z,12.76
2022-10-02T00:50:14.333Z,12.79
2022-10-02T00:51:14.415Z,12.83
2022-10-02T00:52:14.705Z,12.86
2022-10-02T00:53:14.668Z,12.86
2022-10-02T00:54:14.354Z,12.86
2022-10-02T00:55:14.268Z,12.88
2022-10-02T00:56:17.287Z,12.87
2022-10-02T00:57:14.672Z,12.87
2022-10-02T00:58:14.335Z,12.9
2022-10-02T00:59:14.377Z,12.89
2022-10-02T01:00:14.448Z,12.91
2022-10-02T01:01:14.335Z,12.91
2022-10-02T01:02:14.716Z,12.91
2022-10-02T01:03:14.380Z,12.92
2022-10-02T01:04:14.332Z,12.95
2022-10-02T01:05:14.375Z,12.95
2022-10-02T01:06:14.474Z,12.99
2022-10-02T01:07:20.337Z,12.98
2022-10-02T01:08:14.748Z,13
2022-10-02T01:09:14.471Z,13.03
2022-10-02T01:10:14.340Z,13.05
2022-10-02T01:11:14.336Z,13.05
2022-10-02T01:12:14.632Z,13.06
2022-10-02T01:13:14.345Z,13.07
2022-10-02T01:14:14.277Z,13.11
2022-10-02T01:15:14.285Z,13.14
2022-10-02T01:16:14.362Z,13.17
2022-10-02T01:17:14.703Z,13.17
2022-10-02T01:18:17.351Z,13.15
2022-10-02T01:19:14.336Z,13.15
2022-10-02T01:20:14.264Z,13.19
2022-10-02T01:21:14.241Z,13.2
2022-10-02T01:22:14.703Z,13.21
2022-10-02T01:23:14.649Z,13.21
2022-10-02T01:24:14.421Z,13.23
2022-10-02T01:25:14.357Z,13.25
2022-10-02T01:26:14.376Z,13.27
2022-10-02T01:27:14.631Z,13.28
2022-10-02T01:28:14.439Z,13.28
2022-10-02T01:29:17.288Z,13.27
2022-10-02T01:30:14.354Z,13.28
2022-10-02T01:31:14.352Z,13.32
2022-10-02T01:32:14.713Z,13.36
2022-10-02T01:33:14.338Z,13.39
2022-10-02T01:34:14.385Z,13.41
2022-10-02T01:35:14.264Z,13.43
2022-10-02T01:36:14.363Z,13.41
2022-10-02T01:37:14.633Z,13.46
2022-10-02T01:38:14.633Z,13.47
2022-10-02T01:39:14.349Z,13.49
2022-10-02T01:40:17.300Z,13.49
2022-10-02T01:41:14.332Z,13.49
2022-10-02T01:42:14.706Z,13.47
2022-10-02T01:43:14.365Z,13.5
2022-10-02T01:44:14.300Z,13.48
2022-10-02T01:45:14.266Z,13.46
2022-10-02T01:46:14.432Z,13.42
2022-10-02T01:47:14.703Z,13.42
2022-10-02T01:48:14.449Z,13.4
2022-10-02T01:49:14.438Z,13.38
2022-10-02T01:50:14.350Z,13.4
2022-10-02T01:51:17.296Z,13.4
2022-10-02T01:52:14.625Z,13.4
2022-10-02T01:53:14.743Z,13.4
2022-10-02T01:54:14.488Z,13.39
2022-10-02T01:55:14.491Z,13.41
2022-10-02T01:56:14.441Z,13.42
2022-10-02T01:57:14.630Z,13.39
2022-10-02T01:58:14.407Z,13.38
2022-10-02T01:59:14.384Z,13.41
2022-10-02T02:00:14.408Z,13.43
2022-10-02T02:01:14.388Z,13.44
2022-10-02T02:02:20.417Z,13.44
2022-10-02T02:03:14.346Z,13.45
2022-10-02T02:04:14.279Z,13.45
2022-10-02T02:05:14.421Z,13.46
2022-10-02T02:06:14.447Z,13.46
2022-10-02T02:07:14.702Z,13.44
2022-10-02T02:08:14.637Z,13.45
2022-10-02T02:09:14.274Z,13.45
2022-10-02T02:10:14.343Z,13.44
2022-10-02T02:11:14.417Z,13.44
2022-10-02T02:12:14.710Z,13.44
2022-10-02T02:13:17.285Z,13.46
2022-10-02T02:14:14.350Z,13.47
2022-10-02T02:15:14.255Z,13.48
2022-10-02T02:16:14.473Z,13.47
2022-10-02T02:17:14.637Z,13.47
2022-10-02T02:18:14.472Z,13.46
2022-10-02T02:19:14.416Z,13.45
2022-10-02T02:20:14.263Z,13.47
2022-10-02T02:21:14.283Z,13.47
2022-10-02T02:22:14.709Z,13.47
2022-10-02T02:23:14.635Z,13.51
2022-10-02T02:24:17.302Z,13.51
2022-10-02T02:25:14.472Z,13.5
2022-10-02T02:26:14.275Z,13.49
2022-10-02T02:27:14.705Z,13.46
2022-10-02T02:28:14.561Z,13.48
2022-10-02T02:29:14.406Z,13.48
2022-10-02T02:30:14.362Z,13.49
2022-10-02T02:31:14.392Z,13.5
2022-10-02T02:32:14.706Z,13.5
2022-10-02T02:33:14.346Z,13.48
2022-10-02T02:34:14.369Z,13.48
2022-10-02T02:35:17.435Z,13.48
2022-10-02T02:36:14.483Z,13.46
2022-10-02T02:37:14.640Z,13.44
2022-10-02T02:38:14.829Z,13.41
2022-10-02T02:39:14.369Z,13.43
2022-10-02T02:40:14.396Z,13.43
2022-10-02T02:41:14.344Z,13.43
2022-10-02T02:42:17.709Z,13.45
2022-10-02T02:43:14.362Z,13.44
2022-10-02T02:44:14.270Z,13.42
2022-10-02T02:45:14.282Z,13.41
2022-10-02T02:46:17.273Z,13.43
2022-10-02T02:47:14.629Z,13.41
2022-10-02T02:48:14.378Z,13.43
2022-10-02T02:49:14.420Z,13.44
2022-10-02T02:50:14.471Z,13.42
2022-10-02T02:51:14.401Z,13.45
2022-10-02T02:52:14.634Z,13.46
2022-10-02T02:53:14.395Z,13.47
2022-10-02T02:54:14.339Z,13.49
2022-10-02T02:55:14.362Z,13.48
2022-10-02T02:56:14.372Z,13.47
2022-10-02T02:57:17.401Z,13.47
2022-10-02T02:58:14.480Z,13.48
2022-10-02T02:59:14.441Z,13.49
2022-10-02T03:00:14.373Z,13.53
2022-10-02T03:01:14.527Z,13.54
2022-10-02T03:02:14.765Z,13.53
2022-10-02T03:03:14.273Z,13.53
2022-10-02T03:04:14.292Z,13.53
2022-10-02T03:05:14.293Z,13.51
2022-10-02T03:06:14.273Z,13.52
2022-10-02T03:07:14.705Z,13.51
2022-10-02T03:08:20.353Z,13.51
2022-10-02T03:09:14.435Z,13.53
2022-10-02T03:10:14.441Z,13.53
2022-10-02T03:11:14.338Z,13.51
2022-10-02T03:12:14.708Z,13.51
2022-10-02T03:13:14.442Z,13.5
2022-10-02T03:14:14.381Z,13.54
2022-10-02T03:15:14.277Z,13.52
2022-10-02T03:16:14.485Z,13.48
2022-10-02T03:17:14.640Z,13.46
2022-10-02T03:18:14.450Z,13.44
2022-10-02T03:19:17.254Z,13.45
2022-10-02T03:20:14.478Z,13.47
2022-10-02T03:21:14.337Z,13.51
2022-10-02T03:22:14.709Z,13.53
2022-10-02T03:23:14.637Z,13.51
2022-10-02T03:24:14.485Z,13.5
2022-10-02T03:25:14.281Z,13.5
2022-10-02T03:26:14.271Z,13.5
2022-10-02T03:27:14.710Z,13.51
2022-10-02T03:28:14.434Z,13.49
2022-10-02T03:29:14.257Z,13.49
2022-10-02T03:30:17.310Z,13.5
2022-10-02T03:31:14.418Z,13.51
2022-10-02T03:32:14.757Z,13.52
2022-10-02T03:33:14.444Z,13.5
2022-10-02T03:34:14.270Z,13.52
2022-10-02T03:35:14.368Z,13.55
2022-10-02T03:36:14.349Z,13.54
2022-10-02T03:37:14.712Z,13.54
2022-10-02T03:38:14.371Z,13.56
2022-10-02T03:39:24.723Z,13.57
2022-10-02T03:40:14.288Z,13.57
2022-10-02T03:41:17.520Z,13.57
2022-10-02T03:42:14.477Z,13.58
2022-10-02T03:43:14.284Z,13.58
2022-10-02T03:44:14.266Z,13.58
2022-10-02T03:45:32.773Z,13.59
2022-10-02T03:46:14.478Z,13.62
2022-10-02T03:47:14.637Z,13.62
2022-10-02T03:48:14.269Z,13.65
2022-10-02T03:49:14.340Z,13.63
2022-10-02T03:50:14.261Z,13.63
2022-10-02T03:51:14.275Z,13.66
2022-10-02T03:52:20.369Z,13.66
2022-10-02T03:53:14.637Z,13.67
2022-10-02T03:54:14.396Z,13.69
2022-10-02T03:55:14.384Z,13.68
2022-10-02T03:56:14.373Z,13.68
2022-10-02T03:57:14.706Z,13.66
2022-10-02T03:58:14.384Z,13.66
2022-10-02T03:59:14.404Z,13.68
2022-10-02T04:00:14.364Z,13.66
2022-10-02T04:01:14.347Z,13.68
2022-10-02T04:02:14.715Z,13.72
2022-10-02T04:03:17.411Z,13.72
2022-10-02T04:04:14.461Z,13.73
2022-10-02T04:05:14.443Z,13.76
2022-10-02T04:06:14.438Z,13.78
2022-10-02T04:07:14.636Z,13.8
2022-10-02T04:08:14.634Z,13.83
2022-10-02T04:09:14.269Z,13.84
2022-10-02T04:10:14.272Z,13.84
2022-10-02T04:11:14.257Z,13.85
2022-10-02T04:12:14.706Z,13.86
2022-10-02T04:13:14.345Z,13.85
2022-10-02T04:14:17.377Z,13.87
2022-10-02T04:15:14.378Z,13.85
2022-10-02T04:16:14.450Z,13.86
2022-10-02T04:17:14.278Z,13.86
2022-10-02T04:18:14.277Z,13.88
2022-10-02T04:19:14.354Z,13.9
2022-10-02T04:20:14.410Z,13.91
2022-10-02T04:21:14.381Z,13.92
2022-10-02T04:22:14.630Z,13.93
2022-10-02T04:23:14.740Z,13.93
2022-10-02T04:24:14.457Z,13.9
2022-10-02T04:25:17.408Z,13.97
2022-10-02T04:26:14.443Z,14.03
2022-10-02T04:27:14.701Z,13.99
2022-10-02T04:28:14.583Z,14.02
2022-10-02T04:29:14.400Z,14.04
2022-10-02T04:30:14.262Z,14.02
2022-10-02T04:31:14.377Z,14.01
2022-10-02T04:32:14.704Z,14.01
2022-10-02T04:33:14.445Z,14.05
2022-10-02T04:34:14.269Z,14.03
2022-10-02T04:35:14.284Z,14.01
2022-10-02T04:36:17.331Z,14.03
2022-10-02T04:37:14.633Z,14.04
2022-10-02T04:38:14.640Z,14.06
2022-10-02T04:39:14.478Z,14.04
2022-10-02T04:40:14.433Z,14
2022-10-02T04:41:14.262Z,14.01
2022-10-02T04:42:14.634Z,14.05
2022-10-02T04:43:14.364Z,14.01
2022-10-02T04:44:14.348Z,13.99
2022-10-02T04:45:14.389Z,13.96
2022-10-02T04:46:14.499Z,13.97
2022-10-02T04:47:20.287Z,14
2022-10-02T04:48:14.380Z,14.02
2022-10-02T04:49:14.309Z,14.04
2022-10-02T04:50:14.394Z,14.07
2022-10-02T04:51:14.453Z,14.06
2022-10-02T04:52:14.706Z,14.06
2022-10-02T04:53:14.764Z,14.02
2022-10-02T04:54:14.258Z,14.02
2022-10-02T04:55:14.273Z,14.05
2022-10-02T04:56:14.261Z,14.07
2022-10-02T04:57:14.703Z,14.06
2022-10-02T04:58:17.310Z,14.08
2022-10-02T04:59:14.381Z,14.02
2022-10-02T05:00:14.397Z,14
2022-10-02T05:01:14.498Z,14.02
2022-10-02T05:02:14.792Z,14.02
2022-10-02T05:03:14.418Z,13.98
2022-10-02T05:04:14.290Z,13.94
2022-10-02T05:05:14.408Z,13.94
2022-10-02T05:06:14.351Z,13.94
2022-10-02T05:07:14.711Z,13.93
2022-10-02T05:08:14.619Z,13.92
2022-10-02T05:09:17.389Z,13.9
2022-10-02T05:10:14.357Z,13.9
2022-10-02T05:11:14.241Z,13.93
2022-10-02T05:12:14.381Z,13.92
2022-10-02T05:13:14.440Z,13.92
2022-10-02T05:14:14.282Z,13.92
2022-10-02T05:15:14.420Z,13.91
2022-10-02T05:16:14.381Z,13.92
2022-10-02T05:17:14.706Z,13.89
2022-10-02T05:18:17.874Z,13.87
2022-10-02T05:19:14.268Z,13.83
2022-10-02T05:20:17.297Z,13.83
2022-10-02T05:21:14.345Z,13.83
2022-10-02T05:22:14.712Z,13.81
2022-10-02T05:23:14.639Z,13.84
2022-10-02T05:24:14.365Z,13.82
2022-10-02T05:25:14.356Z,13.81
2022-10-02T05:26:14.650Z,13.81
2022-10-02T05:27:14.704Z,13.79
2022-10-02T05:28:14.493Z,13.83
2022-10-02T05:29:14.411Z,13.78
2022-10-02T05:30:14.475Z,13.82
2022-10-02T05:31:17.420Z,13.81
2022-10-02T05:32:14.648Z,13.85
2022-10-02T05:33:14.445Z,13.83
2022-10-02T05:34:14.255Z,13.82
2022-10-02T05:35:14.370Z,13.83
2022-10-02T05:36:14.435Z,13.83
2022-10-02T05:37:14.643Z,13.83
2022-10-02T05:38:14.363Z,13.79
2022-10-02T05:39:14.415Z,13.76
2022-10-02T05:40:14.349Z,13.78
2022-10-02T05:41:14.250Z,13.81
2022-10-02T05:42:20.304Z,13.8
2022-10-02T05:43:14.368Z,13.79
2022-10-02T05:44:14.280Z,13.79
2022-10-02T05:45:14.287Z,13.75
2022-10-02T05:46:14.280Z,13.77
2022-10-02T05:47:14.702Z,13.8
2022-10-02T05:48:14.372Z,13.81
2022-10-02T05:49:14.384Z,13.83
2022-10-02T05:50:14.390Z,13.82
2022-10-02T05:51:14.286Z,13.86
2022-10-02T05:52:14.708Z,13.85
2022-10-02T05:53:19.569Z,13.85
2022-10-02T05:54:14.367Z,13.88
2022-10-02T05:55:14.278Z,13.88
2022-10-02T05:56:14.387Z,13.91
2022-10-02T05:57:14.627Z,13.91
2022-10-02T05:58:14.460Z,13.97
2022-10-02T05:59:14.258Z,13.89
2022-10-02T06:00:14.373Z,13.89
2022-10-02T06:01:14.526Z,13.87
2022-10-02T06:02:14.699Z,13.88
2022-10-02T06:03:14.370Z,13.88
2022-10-02T06:04:17.353Z,13.88
2022-10-02T06:05:14.335Z,13.89
2022-10-02T06:06:14.259Z,13.9
2022-10-02T06:07:14.283Z,13.92
2022-10-02T06:08:14.705Z,13.91
2022-10-02T06:09:18.953Z,13.93
2022-10-02T06:10:14.305Z,13.96
2022-10-02T06:11:14.345Z,13.96
2022-10-02T06:12:14.716Z,13.95
2022-10-02T06:13:14.453Z,13.95
2022-10-02T06:14:14.382Z,14
2022-10-02T06:15:17.325Z,14.02
2022-10-02T06:16:14.598Z,14.04
2022-10-02T06:17:14.628Z,14.05
2022-10-02T06:18:14.485Z,14.03
2022-10-02T06:19:14.383Z,14.06
2022-10-02T06:20:14.279Z,14.07
2022-10-02T06:21:14.388Z,14.03
2022-10-02T06:22:14.706Z,14.03
2022-10-02T06:23:14.357Z,14.04
2022-10-02T06:24:14.278Z,14.02
2022-10-02T06:25:14.266Z,14.02
2022-10-02T06:26:17.296Z,14
2022-10-02T06:27:14.489Z,13.97
2022-10-02T06:28:14.578Z,13.96
2022-10-02T06:29:18.651Z,13.95
2022-10-02T06:30:14.486Z,13.94
2022-10-02T06:31:14.460Z,13.96
2022-10-02T06:32:14.424Z,13.99
2022-10-02T06:33:14.324Z,13.99
2022-10-02T06:34:14.326Z,13.97
2022-10-02T06:35:14.265Z,13.96
2022-10-02T06:36:14.356Z,13.94
2022-10-02T06:37:20.400Z,13.94
2022-10-02T06:38:14.842Z,13.92
2022-10-02T06:39:14.343Z,13.92
2022-10-02T06:40:14.340Z,13.89
2022-10-02T06:41:14.247Z,13.87
2022-10-02T06:42:14.390Z,13.87
2022-10-02T06:43:14.280Z,13.86
2022-10-02T06:44:14.263Z,13.88
2022-10-02T06:45:14.261Z,13.91
2022-10-02T06:46:14.406Z,13.93
2022-10-02T06:47:14.711Z,13.96
2022-10-02T06:48:17.368Z,13.96
2022-10-02T06:49:14.477Z,13.95
2022-10-02T06:50:14.386Z,13.94
2022-10-02T06:51:14.279Z,13.99
2022-10-02T06:52:14.707Z,13.97
2022-10-02T06:53:14.368Z,13.97
2022-10-02T06:54:14.289Z,14.01
2022-10-02T06:55:14.288Z,14.03
2022-10-02T06:56:14.395Z,14.03
2022-10-02T06:57:14.625Z,14.04
2022-10-02T06:58:14.434Z,14.05
2022-10-02T06:59:17.399Z,14.07
2022-10-02T07:00:14.477Z,14.07
2022-10-02T07:01:14.474Z,14.07
2022-10-02T07:02:14.851Z,14.1
2022-10-02T07:03:14.472Z,14.08
2022-10-02T07:04:14.280Z,14.09
2022-10-02T07:05:14.274Z,14.16
2022-10-02T07:06:14.276Z,14.15
2022-10-02T07:07:14.279Z,14.15
2022-10-02T07:08:14.709Z,14.15
2022-10-02T07:09:14.353Z,14.16
2022-10-02T07:10:17.377Z,14.16
2022-10-02T07:11:14.322Z,14.16
2022-10-02T07:12:14.706Z,14.11
2022-10-02T07:13:14.340Z,14.09
2022-10-02T07:14:14.374Z,14.08
2022-10-02T07:15:14.380Z,14.08
2022-10-02T07:16:14.426Z,14.11
2022-10-02T07:17:14.263Z,14.09
2022-10-02T07:18:14.387Z,14.13
2022-10-02T07:19:14.411Z,14.1
2022-10-02T07:20:14.487Z,14.09
2022-10-02T07:21:17.307Z,14.11
2022-10-02T07:22:32.715Z,14.11
2022-10-02T07:23:14.505Z,14.09
2022-10-02T07:24:14.368Z,14.11
2022-10-02T07:25:14.260Z,14.14
2022-10-02T07:26:14.263Z,14.19
2022-10-02T07:27:14.430Z,14.13
2022-10-02T07:28:14.288Z,14.14
2022-10-02T07:29:14.278Z,14.16
2022-10-02T07:30:14.376Z,14.2
2022-10-02T07:31:14.459Z,14.19
2022-10-02T07:32:17.784Z,14.22
2022-10-02T07:33:14.467Z,14.25
2022-10-02T07:34:14.401Z,14.26
2022-10-02T07:35:14.439Z,14.29
2022-10-02T07:36:14.369Z,14.3
2022-10-02T07:37:14.634Z,14.29
2022-10-02T07:38:14.639Z,14.31
2022-10-02T07:39:14.278Z,14.31
2022-10-02T07:40:14.378Z,14.32
2022-10-02T07:41:14.423Z,14.26
2022-10-02T07:42:14.699Z,14.18
2022-10-02T07:43:17.296Z,14.23
2022-10-02T07:44:14.444Z,14.23
2022-10-02T07:45:14.278Z,14.25
2022-10-02T07:46:14.439Z,14.23
2022-10-02T07:47:14.630Z,14.26
2022-10-02T07:48:14.444Z,14.28
2022-10-02T07:49:14.286Z,14.26
2022-10-02T07:50:14.263Z,14.31
2022-10-02T07:51:17.983Z,14.35
2022-10-02T07:52:14.723Z,14.34
2022-10-02T07:53:14.466Z,14.34
2022-10-02T07:54:17.387Z,14.34
2022-10-02T07:55:14.470Z,14.35
2022-10-02T07:56:14.398Z,14.36
2022-10-02T07:57:14.715Z,14.34
2022-10-02T07:58:14.354Z,14.35
2022-10-02T07:59:14.302Z,14.39
2022-10-02T08:00:14.363Z,14.42
2022-10-02T08:01:14.276Z,14.39
2022-10-02T08:02:14.453Z,14.36
2022-10-02T08:03:14.479Z,14.35
2022-10-02T08:04:14.280Z,14.32
2022-10-02T08:05:17.270Z,14.32
2022-10-02T08:06:14.344Z,14.33
2022-10-02T08:07:14.412Z,14.31
2022-10-02T08:08:14.359Z,14.31
2022-10-02T08:09:14.277Z,14.34
2022-10-02T08:10:14.278Z,14.38
2022-10-02T08:11:14.272Z,14.38
2022-10-02T08:12:14.282Z,14.4
2022-10-02T08:13:14.278Z,14.4
2022-10-02T08:14:14.271Z,14.41
2022-10-02T08:15:14.263Z,14.39
2022-10-02T08:16:17.349Z,14.4
2022-10-02T08:17:14.458Z,14.43
2022-10-02T08:18:33.035Z,14.44
2022-10-02T08:19:14.371Z,14.5
2022-10-02T08:20:14.765Z,14.51
2022-10-02T08:21:14.369Z,14.51
2022-10-02T08:22:14.636Z,14.59
2022-10-02T08:23:14.370Z,14.61
2022-10-02T08:24:14.336Z,14.65
2022-10-02T08:25:14.283Z,14.67
2022-10-02T08:26:14.707Z,14.68
2022-10-02T08:27:17.398Z,14.67
2022-10-02T08:28:14.485Z,14.68
2022-10-02T08:29:14.373Z,14.7
2022-10-02T08:30:14.328Z,14.74
2022-10-02T08:31:14.524Z,14.84
2022-10-02T08:32:14.385Z,14.85
2022-10-02T08:33:14.263Z,14.84
2022-10-02T08:34:14.251Z,14.82
2022-10-02T08:35:14.297Z,14.8
2022-10-02T08:36:14.262Z,14.81
2022-10-02T08:37:14.712Z,14.88
2022-10-02T08:38:20.302Z,14.9
2022-10-02T08:39:14.360Z,14.98
2022-10-02T08:40:14.368Z,14.99
2022-10-02T08:41:14.394Z,15.06
2022-10-02T08:42:14.708Z,15.08
2022-10-02T08:43:14.444Z,15.09
2022-10-02T08:44:14.416Z,15.13
2022-10-02T08:45:14.283Z,15.26
2022-10-02T08:46:14.330Z,15.22
2022-10-02T08:47:14.482Z,15.23
2022-10-02T08:48:14.387Z,15.24
2022-10-02T08:49:17.359Z,15.25
2022-10-02T08:50:14.336Z,15.28
2022-10-02T08:51:14.288Z,15.34
2022-10-02T08:52:14.706Z,15.36
2022-10-02T08:53:14.630Z,15.37
2022-10-02T08:54:14.403Z,15.36
2022-10-02T08:55:14.421Z,15.34
2022-10-02T08:56:19.842Z,15.39
2022-10-02T08:57:14.632Z,15.44
2022-10-02T08:58:14.460Z,15.47
2022-10-02T08:59:14.347Z,15.5
2022-10-02T09:00:17.308Z,15.51
2022-10-02T09:01:14.406Z,15.42
2022-10-02T09:02:14.655Z,15.39
2022-10-02T09:03:14.366Z,15.37
2022-10-02T09:04:14.417Z,15.41
2022-10-02T09:05:14.446Z,15.42
2022-10-02T09:06:14.420Z,15.48
2022-10-02T09:07:14.701Z,15.48
2022-10-02T09:08:14.348Z,15.49
2022-10-02T09:09:14.337Z,15.55
2022-10-02T09:10:14.417Z,15.58
2022-10-02T09:11:17.546Z,15.53
2022-10-02T09:12:14.656Z,15.58
2022-10-02T09:13:14.435Z,15.65
2022-10-02T09:14:14.351Z,15.64
2022-10-02T09:15:14.397Z,15.74
2022-10-02T09:16:14.402Z,15.77
2022-10-02T09:17:14.838Z,15.82
2022-10-02T09:18:14.284Z,15.87
2022-10-02T09:19:14.278Z,15.9
2022-10-02T09:20:14.380Z,15.95
2022-10-02T09:21:14.461Z,15.88
2022-10-02T09:22:17.368Z,15.85
2022-10-02T09:23:14.638Z,15.87
2022-10-02T09:24:14.462Z,15.83
2022-10-02T09:25:14.466Z,15.82
2022-10-02T09:26:14.424Z,15.74
2022-10-02T09:27:14.712Z,15.73
2022-10-02T09:28:14.443Z,15.67
2022-10-02T09:29:14.373Z,15.61
2022-10-02T09:30:14.529Z,15.55
2022-10-02T09:31:14.502Z,15.5
2022-10-02T09:32:14.708Z,15.52
2022-10-02T09:33:17.290Z,15.43
2022-10-02T09:34:14.348Z,15.43
2022-10-02T09:35:14.312Z,15.42
2022-10-02T09:36:14.275Z,15.47
2022-10-02T09:37:14.710Z,15.52
2022-10-02T09:38:14.450Z,15.58
2022-10-02T09:39:14.369Z,15.59
2022-10-02T09:40:14.415Z,15.59
2022-10-02T09:41:14.400Z,15.59
2022-10-02T09:42:14.508Z,15.59
2022-10-02T09:43:14.344Z,15.59
2022-10-02T09:44:17.321Z,15.59
2022-10-02T09:45:14.343Z,15.62
2022-10-02T09:46:14.399Z,15.57
2022-10-02T09:47:14.495Z,15.53
2022-10-02T09:48:14.458Z,15.54
2022-10-02T09:49:14.329Z,15.61
2022-10-02T09:50:14.468Z,15.62
2022-10-02T09:51:14.406Z,15.64
2022-10-02T09:52:14.435Z,15.67
2022-10-02T09:53:14.893Z,15.67
2022-10-02T09:54:14.489Z,15.66
2022-10-02T09:55:17.393Z,15.67
2022-10-02T09:56:14.487Z,15.64
2022-10-02T09:57:14.701Z,15.59
2022-10-02T09:58:14.457Z,15.57
2022-10-02T09:59:14.388Z,15.55
2022-10-02T10:00:14.388Z,15.55
2022-10-02T10:01:14.370Z,15.59
2022-10-02T10:02:14.757Z,15.65
2022-10-02T10:03:14.380Z,15.67
2022-10-02T10:04:14.277Z,15.68
2022-10-02T10:05:14.257Z,15.55
2022-10-02T10:06:17.284Z,15.52
2022-10-02T10:07:18.423Z,15.54
2022-10-02T10:08:14.642Z,15.59
2022-10-02T10:09:14.478Z,15.61
2022-10-02T10:10:14.371Z,15.65
2022-10-02T10:11:14.265Z,15.67
2022-10-02T10:12:14.367Z,15.67
2022-10-02T10:13:14.403Z,15.75
2022-10-02T10:14:14.412Z,15.77
2022-10-02T10:15:14.393Z,15.81
2022-10-02T10:16:14.403Z,15.87
2022-10-02T10:17:20.336Z,15.86
2022-10-02T10:18:14.381Z,15.85
2022-10-02T10:19:14.360Z,15.91
2022-10-02T10:20:14.409Z,15.9
2022-10-02T10:21:14.339Z,15.91
2022-10-02T10:22:14.722Z,15.96
2022-10-02T10:23:14.644Z,15.93
2022-10-02T10:24:14.252Z,15.92
2022-10-02T10:25:14.275Z,15.88
2022-10-02T10:26:14.258Z,15.88
2022-10-02T10:27:14.415Z,15.92
2022-10-02T10:28:17.282Z,15.99
2022-10-02T10:29:14.339Z,16.13
2022-10-02T10:30:14.360Z,16.2
2022-10-02T10:31:14.392Z,16.23
2022-10-02T10:32:14.275Z,16.21
2022-10-02T10:33:14.349Z,16.19
2022-10-02T10:34:14.243Z,16.17
2022-10-02T10:35:14.373Z,16.09
2022-10-02T10:36:14.348Z,16.05
2022-10-02T10:37:14.294Z,16.02
2022-10-02T10:38:14.276Z,15.95
2022-10-02T10:39:17.251Z,15.94
2022-10-02T10:40:14.481Z,15.94
2022-10-02T10:41:14.441Z,15.95
2022-10-02T10:42:14.637Z,16.03
2022-10-02T10:43:16.603Z,16.06
2022-10-02T10:44:14.269Z,16.08
2022-10-02T10:45:14.385Z,16.03
2022-10-02T10:46:14.495Z,15.99
2022-10-02T10:47:14.484Z,15.94
2022-10-02T10:48:14.275Z,15.93
2022-10-02T10:49:14.256Z,15.89
2022-10-02T10:50:17.366Z,15.86
2022-10-02T10:51:14.360Z,15.85
2022-10-02T10:52:14.718Z,15.83
2022-10-02T10:53:14.646Z,15.85
2022-10-02T10:54:14.466Z,15.82
2022-10-02T10:55:14.382Z,15.78
2022-10-02T10:56:14.265Z,15.81
2022-10-02T10:57:14.359Z,15.82
2022-10-02T10:58:14.369Z,15.82
2022-10-02T10:59:14.394Z,15.81
2022-10-02T11:00:14.405Z,15.82
2022-10-02T11:01:17.384Z,15.83
2022-10-02T11:02:14.466Z,15.85
2022-10-02T11:03:14.369Z,15.83
2022-10-02T11:04:14.317Z,15.82
2022-10-02T11:05:14.263Z,15.86
2022-10-02T11:06:14.279Z,15.91
2022-10-02T11:07:14.323Z,15.98
2022-10-02T11:08:14.286Z,16.05
2022-10-02T11:09:14.291Z,16.13
2022-10-02T11:10:14.341Z,16.2
2022-10-02T11:11:14.342Z,16.27
2022-10-02T11:12:20.328Z,16.29
2022-10-02T11:13:14.441Z,16.33
2022-10-02T11:14:14.370Z,16.34
2022-10-02T11:15:14.418Z,16.26
2022-10-02T11:16:14.565Z,16.17
2022-10-02T11:17:14.641Z,16.17
2022-10-02T11:18:14.365Z,16.15
2022-10-02T11:19:17.943Z,16.15
2022-10-02T11:20:14.463Z,16.18
2022-10-02T11:21:14.388Z,16.15
2022-10-02T11:22:14.473Z,16.15
2022-10-02T11:23:20.355Z,16.21
2022-10-02T11:24:14.343Z,16.2
2022-10-02T11:25:14.298Z,16.15
2022-10-02T11:26:14.284Z,16.07
2022-10-02T11:27:14.713Z,16.05
2022-10-02T11:28:14.403Z,16.08
2022-10-02T11:29:14.257Z,16.09
2022-10-02T11:30:14.280Z,16.14
2022-10-02T11:31:14.304Z,16.1
2022-10-02T11:32:14.309Z,16.08
2022-10-02T11:33:14.339Z,16.15
2022-10-02T11:34:17.314Z,16.27
2022-10-02T11:35:14.494Z,16.38
2022-10-02T11:36:14.489Z,16.36
2022-10-02T11:37:14.641Z,16.3
2022-10-02T11:38:14.752Z,16.27
2022-10-02T11:39:14.451Z,16.26
2022-10-02T11:40:14.374Z,16.24
2022-10-02T11:41:14.331Z,16.19
2022-10-02T11:42:14.764Z,16.12
2022-10-02T11:43:14.346Z,16.06
2022-10-02T11:44:14.296Z,15.96
2022-10-02T11:45:17.348Z,15.9
2022-10-02T11:46:14.579Z,15.8
2022-10-02T11:47:14.383Z,15.75
2022-10-02T11:48:14.451Z,15.7
2022-10-02T11:49:14.269Z,15.61
2022-10-02T11:50:14.270Z,15.58
2022-10-02T11:51:14.281Z,15.59
2022-10-02T11:52:14.711Z,15.64
2022-10-02T11:53:14.444Z,15.7
2022-10-02T11:54:14.283Z,15.76
2022-10-02T11:55:14.272Z,15.86
2022-10-02T11:56:17.365Z,15.87
2022-10-02T11:57:14.456Z,15.79
2022-10-02T11:58:14.411Z,15.71
2022-10-02T11:59:14.428Z,15.72
2022-10-02T12:00:14.270Z,15.77
2022-10-02T12:01:14.266Z,15.82
2022-10-02T12:02:16.692Z,15.78
2022-10-02T12:03:14.539Z,15.71
2022-10-02T12:04:14.437Z,15.73
2022-10-02T12:05:14.326Z,15.76
2022-10-02T12:06:14.368Z,15.69
2022-10-02T12:07:20.364Z,15.67
2022-10-02T12:08:14.651Z,15.75
2022-10-02T12:09:14.448Z,15.79
2022-10-02T12:10:14.331Z,15.83
2022-10-02T12:11:14.255Z,15.86
2022-10-02T12:12:14.538Z,15.91
2022-10-02T12:13:14.362Z,16.09
2022-10-02T12:14:14.401Z,16.25
2022-10-02T12:15:14.480Z,16.37
2022-10-02T12:16:14.427Z,16.52
2022-10-02T12:17:14.277Z,16.63
2022-10-02T12:18:21.642Z,16.71
2022-10-02T12:19:14.343Z,16.74
2022-10-02T12:20:14.374Z,16.75
2022-10-02T12:21:14.328Z,16.71
2022-10-02T12:22:14.276Z,16.66
2022-10-02T12:23:14.402Z,16.62
2022-10-02T12:24:14.353Z,16.53
2022-10-02T12:25:14.366Z,16.42
2022-10-02T12:26:14.468Z,16.37
2022-10-02T12:27:14.442Z,16.38
2022-10-02T12:28:14.501Z,16.37
2022-10-02T12:29:17.389Z,16.36
2022-10-02T12:30:14.348Z,16.36
2022-10-02T12:31:14.312Z,16.39
2022-10-02T12:32:14.536Z,16.42
2022-10-02T12:33:14.386Z,16.47
2022-10-02T12:34:14.484Z,16.56
2022-10-02T12:35:14.420Z,16.65
2022-10-02T12:36:14.297Z,16.71
2022-10-02T12:37:14.396Z,16.84
2022-10-02T12:38:14.500Z,16.89
2022-10-02T12:39:16.780Z,16.82
2022-10-02T12:40:17.280Z,16.78
2022-10-02T12:41:14.325Z,16.72
2022-10-02T12:42:14.257Z,16.66
2022-10-02T12:43:14.280Z,16.58
2022-10-02T12:44:14.384Z,16.53
2022-10-02T12:45:14.266Z,16.42
2022-10-02T12:46:14.372Z,16.31
2022-10-02T12:47:14.426Z,16.26
2022-10-02T12:48:14.484Z,16.31
2022-10-02T12:49:14.348Z,16.35
2022-10-02T12:50:14.403Z,16.37
2022-10-02T12:51:17.251Z,16.39
2022-10-02T12:52:14.648Z,16.35
2022-10-02T12:53:14.451Z,16.29
2022-10-02T12:54:14.288Z,16.28